Sonderso, Denmark
Current Conditions -  °F | °C
As of 10:52 PM on Wednesday 28 Jan 2015 (Local Time) from EKSB Reporting Station
Snow Showers Snow Showers  
Wind Chill: 29°   Ceiling: 3500
Heat Index: 37°   Visibility: 5mi
Dew Point: 34°   Wind: 13mph
Humidity: 87%   Direction: 240°WSW
Pressure: 28.97"   Gusts: 31mph
Location:  55.49°N, 10.26°E
Report Text: EKSB 282152Z 24011G27KT 200V270 8000 -SHRASN SCT018CBBKN035 03/01 Q0981
Loading
Personal Weather Stations






























Interactive Weather Map New forecast layout! Learn more

10-Day Weather Forecast

Advertisements
Track Severe Weather on mobile